Time;durP1;ratioP1;P1;durP2;ratioP2;P2;SDS_P1;SDS_P2;PMS_P1;PMS_P2;Temp;Humidity;BMP_temperature;BMP_pressure;BME280_temperature;BME280_humidity;BME280_pressure;Samples;Min_cycle;Max_cycle;Signal;HPM_P1;HPM_P2
2022/06/24 00:01:41;;;;;;;8.55;7.65;;;;;;;18.20;100.00;99702.63;6277756;22;20015;-84
2022/06/24 00:04:07;;;;;;;10.55;8.25;;;;;;;17.95;100.00;99695.81;6278426;22;20649;-84
2022/06/24 00:06:46;;;;;;;10.45;8.18;;;;;;;17.75;100.00;99706.31;6277236;22;20011;-83
2022/06/24 00:09:13;;;;;;;8.73;7.85;;;;;;;17.88;100.00;99704.63;6278010;22;20045;-84
2022/06/24 00:11:39;;;;;;;9.27;8.38;;;;;;;17.92;100.00;99707.22;6277662;22;20034;-84
2022/06/24 00:14:08;;;;;;;9.43;7.88;;;;;;;18.02;100.00;99708.59;6305419;22;20337;-84
2022/06/24 00:16:52;;;;;;;9.95;8.27;;;;;;;17.98;100.00;99705.25;6305578;22;20019;-83
2022/06/24 00:19:18;;;;;;;8.63;7.82;;;;;;;17.97;100.00;99709.31;6304927;22;20034;-84
2022/06/24 00:21:43;;;;;;;15.15;8.13;;;;;;;17.97;100.00;99704.47;6277660;22;20519;-84
2022/06/24 00:24:21;;;;;;;8.98;8.10;;;;;;;17.81;100.00;99701.50;6304765;22;20342;-84
2022/06/24 00:26:46;;;;;;;9.93;8.43;;;;;;;17.74;100.00;99707.56;6276213;22;20702;-83
2022/06/24 00:29:18;;;;;;;9.35;8.50;;;;;;;17.88;100.00;99709.47;6305085;22;20039;-84
2022/06/24 00:32:01;;;;;;;10.27;9.00;;;;;;;17.62;100.00;99710.25;6304801;22;20433;-80
2022/06/24 00:34:26;;;;;;;10.88;9.88;;;;;;;17.31;100.00;99717.75;6278004;22;20383;-80
2022/06/24 00:36:52;;;;;;;11.00;9.63;;;;;;;17.44;100.00;99713.31;6276807;22;20141;-80
2022/06/24 00:39:17;;;;;;;11.25;9.88;;;;;;;17.51;100.00;99712.88;6302459;22;20125;-80
2022/06/24 00:41:51;;;;;;;10.52;9.27;;;;;;;17.63;100.00;99708.97;6303928;22;20345;-79
2022/06/24 00:44:18;;;;;;;10.65;9.55;;;;;;;17.55;100.00;99710.63;6276632;22;20015;-80
2022/06/24 00:46:43;;;;;;;11.68;9.27;;;;;;;17.69;100.00;99704.19;6277605;22;20004;-80
2022/06/24 00:49:10;;;;;;;10.10;9.20;;;;;;;17.79;100.00;99707.63;6276094;22;20011;-80
2022/06/24 00:51:37;;;;;;;10.70;9.50;;;;;;;17.65;100.00;99717.66;6276941;22;20065;-80
2022/06/24 00:54:08;;;;;;;11.25;8.90;;;;;;;17.71;100.00;99710.06;6303926;22;20015;-80
2022/06/24 00:56:34;;;;;;;9.80;7.82;;;;;;;17.84;100.00;99712.50;6304263;22;20011;-80
2022/06/24 00:59:01;;;;;;;8.77;8.02;;;;;;;17.84;100.00;99711.72;6276665;22;20366;-80
2022/06/24 01:01:38;;;;;;;11.38;8.30;;;;;;;17.80;100.00;99711.19;6277254;22;20011;-80
2022/06/24 01:04:07;;;;;;;10.32;8.13;;;;;;;17.73;100.00;99711.63;6302779;22;20082;-80
2022/06/24 01:06:34;;;;;;;8.77;7.78;;;;;;;17.68;100.00;99711.06;6277630;22;20452;-80
2022/06/24 01:09:00;;;;;;;8.73;7.90;;;;;;;17.48;100.00;99705.47;6276850;22;20019;-80
2022/06/24 01:11:36;;;;;;;10.60;8.55;;;;;;;17.41;100.00;99708.69;6304777;22;20446;-80
2022/06/24 01:14:03;;;;;;;9.40;8.40;;;;;;;17.40;100.00;99701.53;6303991;22;20007;-81
2022/06/24 01:16:29;;;;;;;9.63;8.68;;;;;;;17.25;100.00;99700.84;6303837;22;20034;-80
2022/06/24 01:18:56;;;;;;;10.43;9.35;;;;;;;17.11;100.00;99693.28;6304700;22;20348;-81
2022/06/24 01:21:45;;;;;;;15.70;9.50;;;;;;;16.92;100.00;99695.59;6305047;22;20061;-81
2022/06/24 01:24:21;;;;;;;13.75;9.63;;;;;;;17.00;100.00;99684.72;6304120;22;20011;-81
2022/06/24 01:26:49;;;;;;;11.30;9.60;;;;;;;17.16;100.00;99687.75;6303753;22;20064;-80
2022/06/24 01:29:16;;;;;;;11.20;9.77;;;;;;;17.01;100.00;99692.66;6304029;22;20011;-81
2022/06/24 01:31:48;;;;;;;10.52;9.18;;;;;;;17.17;100.00;99677.31;6276222;22;20009;-80
2022/06/24 01:34:14;;;;;;;12.20;9.18;;;;;;;17.35;100.00;99665.78;6303852;22;20385;-81
2022/06/24 01:36:40;;;;;;;13.25;9.88;;;;;;;17.45;100.00;99681.22;6276722;22;20105;-80
2022/06/24 01:39:06;;;;;;;11.98;10.77;;;;;;;17.17;100.00;99677.31;6303068;22;20011;-81
2022/06/24 01:41:32;;;;;;;12.73;11.63;;;;;;;16.99;100.00;99683.94;6303497;22;20006;-81
2022/06/24 01:43:58;;;;;;;13.23;11.95;;;;;;;16.90;100.00;99691.72;6303561;22;20349;-81
2022/06/24 01:46:24;;;;;;;13.88;12.25;;;;;;;16.86;100.00;99685.56;6304300;22;20003;-81
2022/06/24 01:48:50;;;;;;;14.05;12.65;;;;;;;16.88;100.00;99688.63;6304471;22;20011;-85
2022/06/24 01:51:17;;;;;;;16.85;13.98;;;;;;;16.81;100.00;99677.84;6304447;22;20019;-85
2022/06/24 01:53:42;;;;;;;17.10;15.30;;;;;;;16.90;100.00;99661.69;6275212;22;20015;-85
2022/06/24 01:56:08;;;;;;;17.90;15.63;;;;;;;17.07;100.00;99659.09;6273998;22;20381;-85
2022/06/24 01:58:34;;;;;;;17.48;15.85;;;;;;;17.14;100.00;99667.09;6275248;22;20015;-85
2022/06/24 02:00:59;;;;;;;16.40;14.40;;;;;;;17.19;100.00;99652.34;6275942;22;20007;-85
2022/06/24 02:03:25;;;;;;;14.57;11.75;;;;;;;17.09;100.00;99659.38;6304110;22;20050;-84
2022/06/24 02:05:51;;;;;;;10.98;9.57;;;;;;;17.03;100.00;99658.53;6304703;22;20035;-85
2022/06/24 02:08:16;;;;;;;11.35;9.20;;;;;;;17.03;100.00;99658.53;6303636;22;20011;-80
2022/06/24 02:13:26;;;;;;;12.18;8.55;;;;;;;16.77;100.00;99656.44;6303314;22;20014;-80
2022/06/24 02:15:56;;;;;;;9.30;8.40;;;;;;;16.86;100.00;99657.56;6303255;22;19999;-81
2022/06/24 02:18:23;;;;;;;9.88;8.80;;;;;;;16.81;100.00;99669.44;6277021;22;20449;-80
2022/06/24 02:20:49;;;;;;;10.98;9.02;;;;;;;16.71;100.00;99661.16;6304586;22;20011;-81
2022/06/24 02:23:15;;;;;;;9.75;8.82;;;;;;;16.50;100.00;99653.22;6303847;22;20015;-81
2022/06/24 02:25:41;;;;;;;9.25;8.30;;;;;;;16.53;100.00;99650.19;6302854;22;20084;-81
2022/06/24 02:28:06;;;;;;;10.27;8.70;;;;;;;16.81;100.00;99647.81;6303359;22;20461;-81
2022/06/24 02:30:32;;;;;;;10.20;9.10;;;;;;;16.81;100.00;99649.84;6304517;22;20038;-81
2022/06/24 02:32:57;;;;;;;10.48;9.27;;;;;;;16.49;100.00;99646.84;6304316;22;20074;-80
2022/06/24 02:35:23;;;;;;;13.25;9.55;;;;;;;16.63;100.00;99657.22;6274890;22;20008;-81
2022/06/24 02:37:49;;;;;;;13.13;10.18;;;;;;;16.79;100.00;99648.28;6276500;22;20011;-81
2022/06/24 02:42:58;;;;;;;10.13;9.23;;;;;;;16.87;100.00;99639.47;6303857;22;20014;-81
2022/06/24 02:45:24;;;;;;;14.15;9.48;;;;;;;17.03;100.00;99650.88;6303568;22;20012;-81
2022/06/24 02:47:49;;;;;;;16.00;9.05;;;;;;;17.09;100.00;99643.34;6275853;22;20007;-81
2022/06/24 02:50:15;;;;;;;15.05;10.13;;;;;;;17.02;100.00;99643.00;6304326;22;20019;-81
2022/06/24 02:52:41;;;;;;;11.07;9.25;;;;;;;17.07;100.00;99636.66;6305208;22;20015;-81
2022/06/24 02:55:06;;;;;;;11.68;10.30;;;;;;;17.14;100.00;99639.06;6305928;22;20082;-81
2022/06/24 02:57:32;;;;;;;12.40;10.35;;;;;;;16.98;100.00;99636.81;6277978;22;20022;-81
2022/06/24 02:59:58;;;;;;;10.65;9.60;;;;;;;16.97;100.00;99635.28;6304997;22;20383;-81
2022/06/24 03:02:23;;;;;;;11.15;9.30;;;;;;;17.09;100.00;99636.97;6305000;22;20007;-81
2022/06/24 03:04:49;;;;;;;10.43;8.75;;;;;;;17.11;100.00;99635.19;6305891;22;20411;-81
2022/06/24 03:07:14;;;;;;;9.93;8.65;;;;;;;17.13;100.00;99637.50;6304802;22;20011;-81
2022/06/24 03:09:40;;;;;;;11.10;9.70;;;;;;;16.87;100.00;99642.25;6304793;22;20019;-81
2022/06/24 03:12:05;;;;;;;10.80;9.70;;;;;;;16.83;100.00;99650.88;6277423;22;20049;-81
2022/06/24 03:14:31;;;;;;;13.32;11.18;;;;;;;16.88;100.00;99646.63;6305895;22;20111;-81
2022/06/24 03:16:56;;;;;;;14.52;12.98;;;;;;;17.04;100.00;99640.44;6305722;22;20409;-81
2022/06/24 03:19:22;;;;;;;16.60;14.90;;;;;;;17.01;100.00;99650.63;6304684;22;20066;-81
2022/06/24 03:21:47;;;;;;;18.00;16.23;;;;;;;16.81;100.00;99645.00;6305690;22;20417;-81
2022/06/24 03:24:13;;;;;;;15.82;14.05;;;;;;;17.05;100.00;99647.59;6305088;22;20149;-81
2022/06/24 03:26:39;;;;;;;14.60;13.20;;;;;;;17.02;100.00;99648.59;6304743;22;20007;-81
2022/06/24 03:29:04;;;;;;;14.73;10.00;;;;;;;16.85;100.00;99648.38;6303885;22;20080;-81
2022/06/24 03:31:30;;;;;;;14.93;8.82;;;;;;;16.98;100.00;99636.81;6278243;22;20007;-81
2022/06/24 03:33:57;;;;;;;15.77;8.18;;;;;;;17.15;100.00;99640.59;6303926;22;20011;-81
2022/06/24 03:36:23;;;;;;;10.85;8.18;;;;;;;17.18;100.00;99645.22;6304809;22;20010;-81
2022/06/24 03:38:48;;;;;;;13.85;8.63;;;;;;;17.03;100.00;99650.13;6303816;22;20015;-81
2022/06/24 03:41:14;;;;;;;13.02;7.93;;;;;;;17.09;100.00;99636.97;6269548;22;20401;-81
2022/06/24 03:43:39;;;;;;;12.93;8.18;;;;;;;17.10;100.00;99644.09;6277452;22;20011;-81
2022/06/24 03:46:05;;;;;;;17.33;8.75;;;;;;;17.03;100.00;99644.50;6277705;22;20475;-81
2022/06/24 03:48:30;;;;;;;12.90;9.23;;;;;;;17.04;100.00;99646.84;6250535;22;20486;-81
2022/06/24 03:50:56;;;;;;;14.82;9.02;;;;;;;17.15;100.00;99640.59;6304728;22;20363;-81
2022/06/24 03:53:22;;;;;;;16.02;9.95;;;;;;;17.23;100.00;99641.69;6277360;22;20018;-80
2022/06/24 03:55:51;;;;;;;11.65;9.05;;;;;;;17.31;100.00;99642.81;6305031;22;20082;-80
2022/06/24 03:58:17;;;;;;;12.48;9.45;;;;;;;17.35;100.00;99646.16;6304711;22;20021;-81
2022/06/24 04:00:43;;;;;;;10.82;9.02;;;;;;;17.48;100.00;99640.97;6304731;22;20656;-80
2022/06/24 04:03:08;;;;;;;14.40;9.43;;;;;;;17.52;100.00;99638.72;6304785;22;20007;-87
2022/06/24 04:05:34;;;;;;;12.30;9.05;;;;;;;17.53;100.00;99645.88;6304845;22;20007;-86
2022/06/24 04:07:59;;;;;;;12.25;9.38;;;;;;;17.68;100.00;99649.34;6278404;22;20007;-86
2022/06/24 04:10:25;;;;;;;16.40;9.38;;;;;;;17.75;100.00;99647.38;6303263;22;20118;-86
2022/06/24 04:12:52;;;;;;;15.20;13.60;;;;;;;17.75;100.00;99641.78;6248717;22;20007;-86
2022/06/24 04:15:17;;;;;;;19.02;17.33;;;;;;;17.65;100.00;99658.78;6303527;22;20341;-86
2022/06/24 04:17:45;;;;;;;20.23;18.13;;;;;;;17.20;100.00;99662.31;6302449;22;20003;-85
2022/06/24 04:20:11;;;;;;;20.98;18.98;;;;;;;17.02;100.00;99659.81;6303056;22;20017;-86
2022/06/24 04:22:36;;;;;;;22.27;19.98;;;;;;;17.17;100.00;99660.50;6304633;22;20021;-85
2022/06/24 04:25:03;;;;;;;23.27;20.92;;;;;;;17.29;100.00;99650.97;6302811;22;20375;-86
2022/06/24 04:27:28;;;;;;;21.92;19.70;;;;;;;17.56;100.00;99663.72;6298847;22;20022;-87
2022/06/24 04:30:01;;;;;;;22.70;20.35;;;;;;;17.76;100.00;99660.13;6302172;22;20333;-87
2022/06/24 04:32:26;;;;;;;20.63;18.50;;;;;;;17.90;100.00;99659.25;6299895;22;20019;-88
2022/06/24 04:34:52;;;;;;;22.33;20.05;;;;;;;17.90;100.00;99664.88;6304055;22;20084;-87
2022/06/24 04:37:17;;;;;;;20.85;18.92;;;;;;;17.98;100.00;99674.38;6302699;22;20089;-87
2022/06/24 04:39:44;;;;;;;21.58;19.48;;;;;;;18.02;100.00;99666.50;6299075;22;20011;-88
2022/06/24 04:42:12;;;;;;;21.52;19.42;;;;;;;18.20;100.00;99666.13;6299967;22;20033;-81
2022/06/24 04:44:38;;;;;;;20.55;18.55;;;;;;;18.43;100.00;99667.88;6298333;22;20021;-81
2022/06/24 04:47:06;;;;;;;21.17;18.85;;;;;;;18.59;100.00;99658.03;6297526;22;20013;-81
2022/06/24 04:49:33;;;;;;;21.58;17.95;;;;;;;18.73;100.00;99662.72;6300606;22;20090;-81
2022/06/24 04:51:58;;;;;;;19.35;17.45;;;;;;;18.94;100.00;99666.91;6300401;22;20094;-82
2022/06/24 04:54:24;;;;;;;19.60;16.23;;;;;;;18.97;100.00;99676.38;6273442;22;20042;-81
2022/06/24 04:56:50;;;;;;;119.97;24.25;;;;;;;19.01;100.00;99682.53;6274433;22;20041;-80
2022/06/24 04:59:16;;;;;;;16.10;12.63;;;;;;;19.02;100.00;99689.69;6303581;22;20015;-86
2022/06/24 05:01:41;;;;;;;14.63;12.10;;;;;;;19.18;100.00;99691.81;6277537;22;20106;-84
2022/06/24 05:04:07;;;;;;;15.50;11.70;;;;;;;19.11;100.00;99681.06;6277534;22;20042;-84
2022/06/24 05:06:32;;;;;;;15.65;12.27;;;;;;;19.08;100.00;99679.25;6252850;22;20011;-84
2022/06/24 05:08:58;;;;;;;15.43;11.68;;;;;;;19.04;100.00;99676.69;6305299;22;20510;-84
2022/06/24 05:11:24;;;;;;;15.40;13.18;;;;;;;18.92;100.00;99691.19;6305514;22;20086;-84
2022/06/24 05:13:50;;;;;;;15.20;13.88;;;;;;;18.92;100.00;99660.28;6277732;22;20037;-84
2022/06/24 05:16:16;;;;;;;16.10;14.40;;;;;;;19.17;100.00;99672.66;6278135;22;20033;-84
2022/06/24 05:18:41;;;;;;;15.55;13.82;;;;;;;19.48;100.00;99681.75;6306788;22;20022;-84
2022/06/24 05:21:06;;;;;;;17.52;15.75;;;;;;;19.57;100.00;99677.16;6305646;22;20011;-84
2022/06/24 05:23:32;;;;;;;16.42;14.65;;;;;;;19.66;100.00;99676.91;6305023;22;20349;-84
2022/06/24 05:25:58;;;;;;;17.23;14.93;;;;;;;19.88;100.00;99674.16;6277842;22;20428;-84
2022/06/24 05:28:23;;;;;;;15.18;13.77;;;;;;;19.94;100.00;99683.38;6304619;22;20015;-85
2022/06/24 05:30:56;;;;;;;15.70;14.02;;;;;;;20.00;100.00;99681.34;6300891;22;20064;-87
2022/06/24 05:33:23;;;;;;;15.90;14.43;;;;;;;19.74;100.00;99680.78;6302642;22;20013;-87
2022/06/24 05:35:52;;;;;;;16.48;14.02;;;;;;;19.68;100.00;99683.59;6275374;22;20034;-86
2022/06/24 05:38:21;;;;;;;15.80;14.40;;;;;;;19.79;100.00;99694.09;6304555;22;20086;-85
2022/06/24 05:40:48;;;;;;;15.07;13.68;;;;;;;19.81;100.00;99691.56;6276887;22;20007;-86
2022/06/24 05:43:14;;;;;;;16.15;14.48;;;;;;;20.04;100.00;99698.75;6304642;22;19999;-87
2022/06/24 05:45:40;;;;;;;14.93;12.93;;;;;;;20.09;100.00;99702.84;6307009;22;20084;-86
2022/06/24 05:48:06;;;;;;;15.25;13.85;;;;;;;20.24;100.00;99712.59;6304424;22;20003;-85
2022/06/24 05:50:32;;;;;;;14.57;13.10;;;;;;;20.15;100.00;99707.19;6250791;22;20023;-85
2022/06/24 05:55:42;;;;;;;14.57;13.30;;;;;;;19.90;100.00;99699.72;6281687;22;20015;-84
2022/06/24 05:58:08;;;;;;;16.45;13.43;;;;;;;19.95;100.00;99693.34;6278014;22;20015;-83
2022/06/24 06:00:33;;;;;;;15.00;13.60;;;;;;;20.04;100.00;99698.75;6256607;22;20079;-85
2022/06/24 06:02:59;;;;;;;14.35;12.95;;;;;;;20.13;100.00;99703.38;6303496;22;20011;-85
2022/06/24 06:05:24;;;;;;;15.02;13.60;;;;;;;20.22;100.00;99709.50;6303191;22;20019;-84
2022/06/24 06:07:50;;;;;;;14.70;13.30;;;;;;;20.23;100.00;99701.81;6250813;22;20015;-85
2022/06/24 06:10:15;;;;;;;14.02;12.52;;;;;;;20.87;100.00;99695.91;6272657;22;20072;-85
2022/06/24 06:12:41;;;;;;;20.45;12.85;;;;;;;20.83;100.00;99705.91;6304571;22;20007;-86
2022/06/24 06:15:07;;;;;;;13.13;11.90;;;;;;;21.32;100.00;99707.84;6275264;22;20437;-85
2022/06/24 06:17:32;;;;;;;13.90;12.70;;;;;;;21.58;100.00;99715.16;6303404;22;20007;-86
2022/06/24 06:19:58;;;;;;;13.75;12.40;;;;;;;21.86;100.00;99718.59;6300851;22;20461;-85
2022/06/24 06:22:23;;;;;;;14.98;13.45;;;;;;;22.05;100.00;99705.41;6300983;22;20007;-84
2022/06/24 06:24:49;;;;;;;16.05;12.70;;;;;;;22.14;100.00;99713.56;6301646;22;20012;-84
2022/06/24 06:27:14;;;;;;;13.95;12.13;;;;;;;22.55;100.00;99709.91;6301134;22;20011;-84
2022/06/24 06:29:40;;;;;;;15.05;13.75;;;;;;;22.12;100.00;99721.78;6274586;22;20000;-84
2022/06/24 06:32:06;;;;;;;14.23;12.93;;;;;;;21.95;100.00;99707.03;6301342;22;20061;-84
2022/06/24 06:34:32;;;;;;;14.98;13.70;;;;;;;22.05;100.00;99710.28;6300748;22;20007;-84
2022/06/24 06:36:58;;;;;;;14.63;13.18;;;;;;;21.77;100.00;99713.25;6273715;22;20357;-84
2022/06/24 06:39:23;;;;;;;14.88;13.40;;;;;;;21.63;100.00;99709.50;6300914;22;20311;-84
2022/06/24 06:41:49;;;;;;;14.82;13.25;;;;;;;21.45;100.00;99704.44;6224491;22;20050;-84
2022/06/24 06:44:16;;;;;;;14.77;12.93;;;;;;;21.55;100.00;99694.41;6302762;22;20007;-83
2022/06/24 06:46:42;;;;;;;13.93;12.73;;;;;;;21.56;100.00;99697.97;6276005;22;20078;-84
2022/06/24 06:49:08;;;;;;;15.77;12.80;;;;;;;21.82;100.00;99698.34;6275563;22;20450;-84
2022/06/24 06:51:34;;;;;;;14.57;13.18;;;;;;;21.54;100.00;99709.03;6303668;22;20003;-83
2022/06/24 06:53:59;;;;;;;14.40;13.05;;;;;;;21.55;100.00;99708.53;6304554;22;20011;-84
2022/06/24 06:56:25;;;;;;;15.02;13.48;;;;;;;21.42;100.00;99708.31;6304440;22;20011;-83
2022/06/24 06:58:50;;;;;;;15.40;13.93;;;;;;;21.31;100.00;99700.66;6251922;22;20011;-84
2022/06/24 07:01:16;;;;;;;14.52;13.13;;;;;;;21.28;100.00;99704.50;6304694;22;19995;-84
2022/06/24 07:03:41;;;;;;;14.73;13.32;;;;;;;21.24;100.00;99712.47;6304770;22;20030;-83
2022/06/24 07:06:07;;;;;;;15.85;14.40;;;;;;;21.15;100.00;99709.19;6304856;22;20074;-83
2022/06/24 07:08:32;;;;;;;15.55;14.05;;;;;;;21.18;100.00;99705.34;6304712;22;20058;-84
2022/06/24 07:10:58;;;;;;;15.20;13.70;;;;;;;21.33;100.00;99686.81;6277431;22;20007;-83
2022/06/24 07:13:25;;;;;;;14.55;13.23;;;;;;;21.63;100.00;99688.97;6304469;22;20383;-83
2022/06/24 07:15:50;;;;;;;14.30;12.88;;;;;;;21.72;100.00;99705.59;6277719;22;20018;-83
2022/06/24 07:18:16;;;;;;;14.93;12.60;;;;;;;21.71;100.00;99681.47;6304441;22;20003;-84
2022/06/24 07:20:45;;;;;;;13.35;11.80;;;;;;;21.77;100.00;99688.63;6304752;22;20039;-83
2022/06/24 07:23:10;;;;;;;13.18;11.85;;;;;;;22.01;100.00;99687.22;6277607;22;20003;-83
2022/06/24 07:25:36;;;;;;;13.10;11.15;;;;;;;22.42;100.00;99687.13;6277176;22;20011;-83
2022/06/24 07:28:02;;;;;;;12.68;11.52;;;;;;;22.73;100.00;99695.09;6304737;22;20057;-84
2022/06/24 07:30:29;;;;;;;11.95;10.85;;;;;;;23.06;99.70;99689.09;6304256;22;20011;-83
2022/06/24 07:32:54;;;;;;;12.30;10.57;;;;;;;22.99;98.83;99695.34;6277448;22;20009;-83
2022/06/24 07:35:20;;;;;;;11.35;10.35;;;;;;;22.80;98.58;99690.94;6303976;22;20011;-83
2022/06/24 07:37:45;;;;;;;11.48;10.32;;;;;;;22.74;100.00;99691.75;6305569;22;20023;-83
2022/06/24 07:40:11;;;;;;;11.45;10.35;;;;;;;22.69;99.64;99689.72;6278752;22;20007;-86
2022/06/24 07:42:37;;;;;;;11.73;10.55;;;;;;;22.87;98.12;99688.28;6278724;22;20011;-83
2022/06/24 07:45:03;;;;;;;12.57;10.02;;;;;;;22.69;99.32;99684.06;6306159;22;20010;-83
2022/06/24 07:47:28;;;;;;;12.93;10.95;;;;;;;22.92;96.08;99695.16;6306356;22;20014;-83
2022/06/24 07:49:54;;;;;;;11.43;10.10;;;;;;;22.85;95.08;99699.34;6306245;22;20018;-83
2022/06/24 07:52:20;;;;;;;12.27;10.43;;;;;;;23.09;94.20;99699.31;6278836;22;20017;-84
2022/06/24 07:54:45;;;;;;;11.93;9.70;;;;;;;23.40;93.57;99697.19;6306135;22;20031;-84
2022/06/24 07:57:10;;;;;;;12.68;9.65;;;;;;;23.86;92.79;99693.97;6305952;22;20445;-84
2022/06/24 07:59:37;;;;;;;10.95;9.85;;;;;;;23.92;89.45;99699.56;6306003;22;20015;-84
2022/06/24 08:02:06;;;;;;;11.40;10.30;;;;;;;23.73;88.74;99688.28;6306252;22;20042;-83
2022/06/24 08:04:31;;;;;;;11.48;10.38;;;;;;;24.30;86.59;99684.06;6278325;22;20003;-83
2022/06/24 08:06:57;;;;;;;10.52;9.52;;;;;;;24.06;88.87;99695.50;6306048;22;20018;-83
2022/06/24 08:09:25;;;;;;;12.55;9.63;;;;;;;23.87;89.37;99691.91;6278447;22;20046;-85
2022/06/24 08:11:51;;;;;;;11.50;9.65;;;;;;;24.18;88.62;99684.78;6306342;22;20008;-84
2022/06/24 08:14:17;;;;;;;11.70;10.00;;;;;;;23.79;89.82;99693.84;6305396;22;20096;-86
2022/06/24 08:16:44;;;;;;;12.07;9.65;;;;;;;23.79;89.73;99686.09;6278562;22;20015;-83
2022/06/24 08:19:09;;;;;;;10.38;9.40;;;;;;;23.85;89.23;99689.63;6305750;22;20385;-83
2022/06/24 08:21:35;;;;;;;11.25;10.00;;;;;;;23.57;88.15;99689.25;6305714;22;20011;-85
2022/06/24 08:24:01;;;;;;;10.35;9.32;;;;;;;23.71;89.09;99679.53;6305714;22;20012;-85
2022/06/24 08:26:27;;;;;;;11.80;9.60;;;;;;;23.92;88.28;99680.50;6278492;22;20034;-85
2022/06/24 08:28:53;;;;;;;10.60;9.60;;;;;;;24.17;87.19;99680.41;6305565;22;20011;-85
2022/06/24 08:31:18;;;;;;;10.60;9.50;;;;;;;24.31;86.09;99684.81;6305789;22;20090;-85
2022/06/24 08:33:44;;;;;;;9.77;8.77;;;;;;;24.00;87.78;99684.25;6305519;22;20761;-85
2022/06/24 08:36:10;;;;;;;10.27;9.27;;;;;;;24.55;85.23;99681.81;6305973;22;20000;-86
2022/06/24 08:38:36;;;;;;;9.90;8.90;;;;;;;24.77;85.85;99681.44;6305200;22;20539;-86
2022/06/24 08:41:02;;;;;;;10.57;8.77;;;;;;;24.46;83.59;99687.94;6306262;22;20021;-83
2022/06/24 08:43:35;;;;;;;10.88;8.70;;;;;;;24.55;82.58;99681.81;6277870;22;20376;-85
2022/06/24 08:46:02;;;;;;;9.07;8.13;;;;;;;24.57;84.44;99685.66;6306168;22;20018;-85
2022/06/24 08:48:28;;;;;;;10.50;8.57;;;;;;;25.00;81.67;99682.56;6305404;22;20432;-85
2022/06/24 08:50:55;;;;;;;9.38;8.20;;;;;;;25.15;80.91;99687.69;6278529;22;20443;-85
2022/06/24 08:53:26;;;;;;;9.45;8.32;;;;;;;25.22;80.50;99674.91;6253543;22;20009;-86
2022/06/24 08:55:51;;;;;;;8.90;8.05;;;;;;;25.75;78.26;99662.16;6278268;22;20065;-85
2022/06/24 08:58:18;;;;;;;8.65;7.70;;;;;;;25.70;77.12;99653.75;6278251;22;20019;-85
2022/06/24 09:00:44;;;;;;;11.30;8.70;;;;;;;25.56;75.84;99647.34;6305290;22;20011;-85
2022/06/24 09:03:10;;;;;;;10.68;8.02;;;;;;;25.30;77.21;99648.16;6278312;22;20315;-85
2022/06/24 09:05:36;;;;;;;9.60;7.93;;;;;;;25.70;78.24;99640.31;6305039;22;20437;-84
2022/06/24 09:08:05;;;;;;;9.52;7.82;;;;;;;26.09;75.82;99630.09;6277941;22;20018;-85
2022/06/24 09:10:32;;;;;;;9.00;7.22;;;;;;;26.41;71.59;99636.28;6305154;22;20011;-85
2022/06/24 09:12:57;;;;;;;8.20;7.40;;;;;;;26.62;72.14;99634.16;6305519;22;20414;-85
2022/06/24 09:15:23;;;;;;;7.60;6.93;;;;;;;26.22;68.09;99638.59;6305133;22;20034;-85
2022/06/24 09:17:49;;;;;;;8.57;6.40;;;;;;;26.40;67.28;99646.91;6278033;22;20021;-85
2022/06/24 09:20:14;;;;;;;8.95;6.78;;;;;;;26.88;65.17;99647.47;6305099;22;20015;-85
2022/06/24 09:22:40;;;;;;;6.95;6.13;;;;;;;27.30;63.40;99657.34;6305368;22;20003;-85
2022/06/24 09:25:06;;;;;;;10.00;6.85;;;;;;;26.49;66.20;99656.25;6305701;22;20019;-85
2022/06/24 09:27:32;;;;;;;9.00;6.63;;;;;;;25.94;65.92;99665.59;6306828;22;20015;-84
2022/06/24 09:29:58;;;;;;;8.20;6.95;;;;;;;26.77;65.77;99665.56;6304925;22;20026;-84
2022/06/24 09:32:23;;;;;;;7.22;6.40;;;;;;;26.47;64.79;99659.66;6304872;22;20078;-84
2022/06/24 09:35:08;;;;;;;7.75;6.53;;;;;;;27.15;64.29;99656.53;6305281;22;20507;-84
2022/06/24 09:37:48;;;;;;;8.02;6.28;;;;;;;26.83;66.57;99657.66;6277863;22;20019;-84
2022/06/24 09:40:23;;;;;;;10.48;6.50;;;;;;;26.48;65.49;99652.66;6277818;22;20441;-84
2022/06/24 09:42:53;;;;;;;7.60;6.00;;;;;;;26.42;65.19;99657.72;6304690;22;20015;-85
2022/06/24 09:45:18;;;;;;;7.18;6.45;;;;;;;26.44;65.00;99655.09;6251911;22;20082;-85
2022/06/24 09:47:50;;;;;;;7.93;6.07;;;;;;;27.31;63.13;99655.28;6252205;22;20050;-85
2022/06/24 09:50:17;;;;;;;6.80;6.10;;;;;;;27.47;60.97;99656.91;6305055;22;20015;-84
2022/06/24 09:52:43;;;;;;;6.68;5.82;;;;;;;28.02;60.48;99643.00;6277648;22;20688;-84
2022/06/24 09:55:12;;;;;;;6.28;5.68;;;;;;;28.11;61.17;99633.13;6277764;22;20449;-85
2022/06/24 09:57:39;;;;;;;6.38;5.55;;;;;;;27.31;60.25;99636.09;6305009;22;20015;-84
2022/06/24 10:02:54;;;;;;;8.18;5.53;;;;;;;29.39;58.58;99632.22;6277690;22;20034;-85
2022/06/24 10:05:20;;;;;;;7.28;5.82;;;;;;;28.12;58.86;99638.28;6304999;22;20007;-85
2022/06/24 10:07:47;;;;;;;9.27;5.15;;;;;;;28.69;55.20;99624.41;6304339;22;20043;-85
2022/06/24 10:10:15;;;;;;;5.75;4.40;;;;;;;28.54;54.37;99603.66;6305102;22;20018;-85
2022/06/24 10:12:46;;;;;;;4.95;4.35;;;;;;;28.34;52.69;99611.09;6251752;22;20042;-84
2022/06/24 10:15:14;;;;;;;5.10;4.07;;;;;;;28.27;50.90;99614.69;6278023;22;20012;-85
2022/06/24 10:17:42;;;;;;;7.90;4.15;;;;;;;28.68;50.91;99605.72;6304650;22;20015;-84
2022/06/24 10:20:10;;;;;;;5.07;4.13;;;;;;;28.72;47.95;99605.38;6277341;22;19999;-85
2022/06/24 10:22:45;;;;;;;5.60;3.92;;;;;;;28.50;47.55;99594.72;6304654;22;20012;-85
2022/06/24 10:25:10;;;;;;;4.15;3.75;;;;;;;28.25;46.05;99601.03;6277308;22;20496;-85
2022/06/24 10:27:57;;;;;;;6.97;3.70;;;;;;;28.70;44.29;99602.34;6277408;22;20035;-84
2022/06/24 10:30:41;;;;;;;7.55;3.70;;;;;;;28.44;43.42;99597.78;6304472;22;20052;-85
2022/06/24 10:33:20;;;;;;;3.50;2.83;;;;;;;28.38;41.99;99585.81;6304698;22;20011;-85
2022/06/24 10:35:59;;;;;;;5.25;2.80;;;;;;;28.78;40.57;99574.53;6304866;22;20011;-85
2022/06/24 10:38:26;;;;;;;5.43;3.20;;;;;;;28.60;39.57;99592.81;6304569;22;20522;-83
2022/06/24 10:40:52;;;;;;;4.40;3.60;;;;;;;28.28;41.00;99584.84;6277399;22;20425;-83
2022/06/24 10:43:38;;;;;;;5.70;3.00;;;;;;;27.81;42.14;99591.84;6306351;22;20094;-85
2022/06/24 10:46:12;;;;;;;3.47;3.17;;;;;;;28.89;42.44;99579.06;6252677;22;20007;-85
2022/06/24 10:48:44;;;;;;;6.97;3.60;;;;;;;29.01;41.04;99586.63;6277774;22;20007;-84
2022/06/24 10:51:14;;;;;;;4.30;3.30;;;;;;;28.34;42.12;99582.59;6305293;22;20049;-83
2022/06/24 10:54:01;;;;;;;4.90;2.92;;;;;;;28.64;41.29;99576.81;6278024;22;20015;-83
2022/06/24 10:56:46;;;;;;;4.43;3.25;;;;;;;28.28;42.27;99570.59;6304641;22;20011;-82
2022/06/24 10:59:13;;;;;;;3.80;2.97;;;;;;;28.11;40.81;99561.84;6304688;22;20011;-83
2022/06/24 11:01:43;;;;;;;5.60;3.30;;;;;;;28.55;40.40;99557.44;6277101;22;20010;-85
2022/06/24 11:04:14;;;;;;;4.57;3.13;;;;;;;28.46;39.52;99560.88;6304728;22;20007;-85
2022/06/24 11:06:39;;;;;;;6.18;3.15;;;;;;;28.67;39.51;99564.25;6277203;22;20067;-85
2022/06/24 11:09:06;;;;;;;4.50;3.00;;;;;;;28.39;38.70;99567.34;6304325;22;20011;-85
2022/06/24 11:11:32;;;;;;;4.38;3.38;;;;;;;28.63;38.31;99558.16;6277789;22;20088;-85
2022/06/24 11:13:58;;;;;;;4.78;3.10;;;;;;;28.99;39.97;99560.00;6306357;22;20368;-85
2022/06/24 11:16:29;;;;;;;8.10;3.28;;;;;;;29.12;39.77;99554.03;6306625;22;20433;-85
2022/06/24 11:18:56;;;;;;;4.65;3.00;;;;;;;28.84;40.70;99554.34;6306384;22;20042;-85
2022/06/24 11:21:22;;;;;;;4.30;3.25;;;;;;;28.76;41.21;99551.50;6306352;22;20011;-85
2022/06/24 11:23:48;;;;;;;5.88;3.30;;;;;;;28.48;40.14;99552.50;6306499;22;20010;-85
2022/06/24 11:26:15;;;;;;;4.57;3.22;;;;;;;29.24;41.39;99545.81;6306696;22;20018;-85
2022/06/24 11:28:42;;;;;;;3.92;3.30;;;;;;;29.67;38.68;99553.19;6306413;22;20452;-84
2022/06/24 11:31:19;;;;;;;5.13;2.90;;;;;;;29.80;37.44;99544.34;6306341;22;20007;-85